sensor_id;sensor_type;location;lat;lon;timestamp;temperature;humidity
47174;DHT22;36730;49.036;9.094;2022-07-04T00:01:57;32.30;57.90
47174;DHT22;36730;49.036;9.094;2022-07-04T00:04:23;32.40;57.60
47174;DHT22;36730;49.036;9.094;2022-07-04T00:06:48;32.40;57.50
47174;DHT22;36730;49.036;9.094;2022-07-04T00:09:14;32.30;57.60
47174;DHT22;36730;49.036;9.094;2022-07-04T00:11:39;32.30;57.50
47174;DHT22;36730;49.036;9.094;2022-07-04T00:14:05;32.30;57.40
47174;DHT22;36730;49.036;9.094;2022-07-04T00:16:30;32.30;57.40
47174;DHT22;36730;49.036;9.094;2022-07-04T00:18:56;32.20;57.30
47174;DHT22;36730;49.036;9.094;2022-07-04T00:21:21;32.30;57.40
47174;DHT22;36730;49.036;9.094;2022-07-04T00:23:47;32.20;57.50
47174;DHT22;36730;49.036;9.094;2022-07-04T00:26:14;32.20;57.30
47174;DHT22;36730;49.036;9.094;2022-07-04T00:28:39;32.20;57.30
47174;DHT22;36730;49.036;9.094;2022-07-04T00:31:04;32.30;57.50
47174;DHT22;36730;49.036;9.094;2022-07-04T00:33:30;32.20;57.30
47174;DHT22;36730;49.036;9.094;2022-07-04T00:35:55;32.30;57.40
47174;DHT22;36730;49.036;9.094;2022-07-04T00:38:21;32.20;57.30
47174;DHT22;36730;49.036;9.094;2022-07-04T00:40:46;32.20;57.40
47174;DHT22;36730;49.036;9.094;2022-07-04T00:43:12;32.30;57.50
47174;DHT22;36730;49.036;9.094;2022-07-04T00:45:37;32.20;57.40
47174;DHT22;36730;49.036;9.094;2022-07-04T00:48:03;32.30;57.60
47174;DHT22;36730;49.036;9.094;2022-07-04T00:50:28;32.20;57.40
47174;DHT22;36730;49.036;9.094;2022-07-04T00:52:54;32.20;57.30
47174;DHT22;36730;49.036;9.094;2022-07-04T00:55:21;32.10;57.30
47174;DHT22;36730;49.036;9.094;2022-07-04T00:57:47;32.20;57.40
47174;DHT22;36730;49.036;9.094;2022-07-04T01:00:13;32.10;57.30
47174;DHT22;36730;49.036;9.094;2022-07-04T01:02:38;32.20;57.50
47174;DHT22;36730;49.036;9.094;2022-07-04T01:05:04;32.10;57.40
47174;DHT22;36730;49.036;9.094;2022-07-04T01:07:29;32.20;57.50
47174;DHT22;36730;49.036;9.094;2022-07-04T01:09:55;32.10;57.30
47174;DHT22;36730;49.036;9.094;2022-07-04T01:12:24;32.10;57.50
47174;DHT22;36730;49.036;9.094;2022-07-04T01:14:50;32.10;57.50
47174;DHT22;36730;49.036;9.094;2022-07-04T01:17:15;32.10;57.60
47174;DHT22;36730;49.036;9.094;2022-07-04T01:19:41;32.10;57.50
47174;DHT22;36730;49.036;9.094;2022-07-04T01:22:06;32.10;57.50
47174;DHT22;36730;49.036;9.094;2022-07-04T01:24:32;32.10;57.50
47174;DHT22;36730;49.036;9.094;2022-07-04T01:26:57;32.10;57.30
47174;DHT22;36730;49.036;9.094;2022-07-04T01:29:23;32.10;57.40
47174;DHT22;36730;49.036;9.094;2022-07-04T01:31:48;32.10;57.40
47174;DHT22;36730;49.036;9.094;2022-07-04T01:34:15;32.10;57.40
47174;DHT22;36730;49.036;9.094;2022-07-04T01:36:40;32.00;57.30
47174;DHT22;36730;49.036;9.094;2022-07-04T01:39:06;32.10;57.50
47174;DHT22;36730;49.036;9.094;2022-07-04T01:41:34;32.10;57.30
47174;DHT22;36730;49.036;9.094;2022-07-04T01:44:00;32.10;57.30
47174;DHT22;36730;49.036;9.094;2022-07-04T01:46:26;32.00;57.30
47174;DHT22;36730;49.036;9.094;2022-07-04T01:48:51;32.00;57.30
47174;DHT22;36730;49.036;9.094;2022-07-04T01:51:17;32.00;57.30
47174;DHT22;36730;49.036;9.094;2022-07-04T01:53:42;32.00;57.50
47174;DHT22;36730;49.036;9.094;2022-07-04T01:56:08;32.00;57.60
47174;DHT22;36730;49.036;9.094;2022-07-04T01:58:33;32.00;57.30
47174;DHT22;36730;49.036;9.094;2022-07-04T02:00:59;31.90;57.20
47174;DHT22;36730;49.036;9.094;2022-07-04T02:03:43;31.90;57.30
47174;DHT22;36730;49.036;9.094;2022-07-04T02:06:10;31.90;57.40
47174;DHT22;36730;49.036;9.094;2022-07-04T02:08:36;31.90;57.20
47174;DHT22;36730;49.036;9.094;2022-07-04T02:11:20;32.00;57.40
47174;DHT22;36730;49.036;9.094;2022-07-04T02:13:46;32.00;57.40
47174;DHT22;36730;49.036;9.094;2022-07-04T02:16:12;32.00;57.30
47174;DHT22;36730;49.036;9.094;2022-07-04T02:18:37;32.00;57.30
47174;DHT22;36730;49.036;9.094;2022-07-04T02:21:03;31.90;57.30
47174;DHT22;36730;49.036;9.094;2022-07-04T02:23:29;31.90;57.30
47174;DHT22;36730;49.036;9.094;2022-07-04T02:25:54;31.90;57.30
47174;DHT22;36730;49.036;9.094;2022-07-04T02:28:20;31.90;57.50
47174;DHT22;36730;49.036;9.094;2022-07-04T02:30:45;31.90;57.50
47174;DHT22;36730;49.036;9.094;2022-07-04T02:33:11;31.90;57.30
47174;DHT22;36730;49.036;9.094;2022-07-04T02:35:36;31.80;57.20
47174;DHT22;36730;49.036;9.094;2022-07-04T02:38:02;31.90;57.30
47174;DHT22;36730;49.036;9.094;2022-07-04T02:40:27;31.80;57.20
47174;DHT22;36730;49.036;9.094;2022-07-04T02:42:53;31.90;57.30
47174;DHT22;36730;49.036;9.094;2022-07-04T02:45:18;31.90;57.20
47174;DHT22;36730;49.036;9.094;2022-07-04T02:47:43;31.80;57.30
47174;DHT22;36730;49.036;9.094;2022-07-04T02:50:09;31.80;57.10
47174;DHT22;36730;49.036;9.094;2022-07-04T02:52:34;31.90;57.20
47174;DHT22;36730;49.036;9.094;2022-07-04T02:55:00;31.80;57.20
47174;DHT22;36730;49.036;9.094;2022-07-04T02:57:27;31.80;57.10
47174;DHT22;36730;49.036;9.094;2022-07-04T02:59:52;31.70;54.20
47174;DHT22;36730;49.036;9.094;2022-07-04T03:02:18;31.40;53.00
47174;DHT22;36730;49.036;9.094;2022-07-04T03:04:43;31.10;51.40
47174;DHT22;36730;49.036;9.094;2022-07-04T03:07:09;30.70;51.40
47174;DHT22;36730;49.036;9.094;2022-07-04T03:09:34;30.30;51.30
47174;DHT22;36730;49.036;9.094;2022-07-04T03:12:00;30.00;51.70
47174;DHT22;36730;49.036;9.094;2022-07-04T03:14:26;29.60;53.70
47174;DHT22;36730;49.036;9.094;2022-07-04T03:16:51;29.40;53.60
47174;DHT22;36730;49.036;9.094;2022-07-04T03:19:16;29.20;53.70
47174;DHT22;36730;49.036;9.094;2022-07-04T03:21:43;29.00;54.40
47174;DHT22;36730;49.036;9.094;2022-07-04T03:24:08;28.80;54.60
47174;DHT22;36730;49.036;9.094;2022-07-04T03:26:34;28.50;54.60
47174;DHT22;36730;49.036;9.094;2022-07-04T03:29:00;28.40;54.70
47174;DHT22;36730;49.036;9.094;2022-07-04T03:31:26;28.30;55.20
47174;DHT22;36730;49.036;9.094;2022-07-04T03:33:52;28.10;55.20
47174;DHT22;36730;49.036;9.094;2022-07-04T03:36:18;27.90;56.10
47174;DHT22;36730;49.036;9.094;2022-07-04T03:38:44;27.80;56.10
47174;DHT22;36730;49.036;9.094;2022-07-04T03:41:09;27.70;56.70
47174;DHT22;36730;49.036;9.094;2022-07-04T03:43:35;27.40;56.30
47174;DHT22;36730;49.036;9.094;2022-07-04T03:46:00;27.30;56.90
47174;DHT22;36730;49.036;9.094;2022-07-04T03:48:26;27.20;57.70
47174;DHT22;36730;49.036;9.094;2022-07-04T03:50:51;27.20;58.10
47174;DHT22;36730;49.036;9.094;2022-07-04T03:53:17;27.10;58.00
47174;DHT22;36730;49.036;9.094;2022-07-04T03:55:45;27.10;58.10
47174;DHT22;36730;49.036;9.094;2022-07-04T03:58:10;27.00;58.70
47174;DHT22;36730;49.036;9.094;2022-07-04T04:00:36;26.90;59.60
47174;DHT22;36730;49.036;9.094;2022-07-04T04:03:01;26.80;58.50
47174;DHT22;36730;49.036;9.094;2022-07-04T04:05:27;26.80;58.60
47174;DHT22;36730;49.036;9.094;2022-07-04T04:07:59;26.70;59.50
47174;DHT22;36730;49.036;9.094;2022-07-04T04:10:25;26.60;59.70
47174;DHT22;36730;49.036;9.094;2022-07-04T04:12:51;26.50;59.50
47174;DHT22;36730;49.036;9.094;2022-07-04T04:15:17;26.50;59.30
47174;DHT22;36730;49.036;9.094;2022-07-04T04:17:44;26.50;59.80
47174;DHT22;36730;49.036;9.094;2022-07-04T04:20:10;26.40;59.70
47174;DHT22;36730;49.036;9.094;2022-07-04T04:22:35;26.40;60.30
47174;DHT22;36730;49.036;9.094;2022-07-04T04:25:01;26.30;59.90
47174;DHT22;36730;49.036;9.094;2022-07-04T04:27:27;26.20;60.80
47174;DHT22;36730;49.036;9.094;2022-07-04T04:29:52;26.20;60.90
47174;DHT22;36730;49.036;9.094;2022-07-04T04:32:18;26.10;60.70
47174;DHT22;36730;49.036;9.094;2022-07-04T04:34:44;26.10;60.80
47174;DHT22;36730;49.036;9.094;2022-07-04T04:37:09;26.00;62.30
47174;DHT22;36730;49.036;9.094;2022-07-04T04:39:35;26.00;61.50
47174;DHT22;36730;49.036;9.094;2022-07-04T04:42:00;26.00;62.50
47174;DHT22;36730;49.036;9.094;2022-07-04T04:44:26;26.00;61.30
47174;DHT22;36730;49.036;9.094;2022-07-04T04:46:51;26.00;61.50
47174;DHT22;36730;49.036;9.094;2022-07-04T04:49:17;26.00;61.20
47174;DHT22;36730;49.036;9.094;2022-07-04T04:51:43;26.00;63.70
47174;DHT22;36730;49.036;9.094;2022-07-04T04:54:09;26.00;62.30
47174;DHT22;36730;49.036;9.094;2022-07-04T04:56:34;25.90;61.80
47174;DHT22;36730;49.036;9.094;2022-07-04T04:59:00;25.90;62.20
47174;DHT22;36730;49.036;9.094;2022-07-04T05:01:25;26.00;62.50
47174;DHT22;36730;49.036;9.094;2022-07-04T05:03:51;26.00;62.50
47174;DHT22;36730;49.036;9.094;2022-07-04T05:06:16;26.00;63.30
47174;DHT22;36730;49.036;9.094;2022-07-04T05:08:43;26.00;62.40
47174;DHT22;36730;49.036;9.094;2022-07-04T05:11:09;26.00;61.60
47174;DHT22;36730;49.036;9.094;2022-07-04T05:13:34;26.00;63.10
47174;DHT22;36730;49.036;9.094;2022-07-04T05:16:00;26.00;63.30
47174;DHT22;36730;49.036;9.094;2022-07-04T05:18:25;26.00;64.60
47174;DHT22;36730;49.036;9.094;2022-07-04T05:20:51;26.00;65.80
47174;DHT22;36730;49.036;9.094;2022-07-04T05:23:16;26.00;65.30
47174;DHT22;36730;49.036;9.094;2022-07-04T05:25:42;26.00;63.60
47174;DHT22;36730;49.036;9.094;2022-07-04T05:28:07;26.00;63.80
47174;DHT22;36730;49.036;9.094;2022-07-04T05:30:33;26.00;64.00
47174;DHT22;36730;49.036;9.094;2022-07-04T05:32:58;26.00;63.50
47174;DHT22;36730;49.036;9.094;2022-07-04T05:35:25;26.10;63.70
47174;DHT22;36730;49.036;9.094;2022-07-04T05:37:53;26.10;62.60
47174;DHT22;36730;49.036;9.094;2022-07-04T05:40:18;26.10;62.00
47174;DHT22;36730;49.036;9.094;2022-07-04T05:42:46;26.10;62.50
47174;DHT22;36730;49.036;9.094;2022-07-04T05:45:11;26.10;62.60
47174;DHT22;36730;49.036;9.094;2022-07-04T05:47:37;26.20;62.20
47174;DHT22;36730;49.036;9.094;2022-07-04T05:50:02;26.20;62.30
47174;DHT22;36730;49.036;9.094;2022-07-04T05:52:28;26.20;61.60
47174;DHT22;36730;49.036;9.094;2022-07-04T05:54:53;26.20;61.00
47174;DHT22;36730;49.036;9.094;2022-07-04T05:57:19;26.20;61.90
47174;DHT22;36730;49.036;9.094;2022-07-04T05:59:44;26.30;60.90
47174;DHT22;36730;49.036;9.094;2022-07-04T06:02:10;26.30;61.30
47174;DHT22;36730;49.036;9.094;2022-07-04T06:04:36;26.40;62.40
47174;DHT22;36730;49.036;9.094;2022-07-04T06:07:01;26.30;61.60
47174;DHT22;36730;49.036;9.094;2022-07-04T06:09:27;26.30;61.80
47174;DHT22;36730;49.036;9.094;2022-07-04T06:11:52;26.30;60.60
47174;DHT22;36730;49.036;9.094;2022-07-04T06:14:18;26.30;61.00
47174;DHT22;36730;49.036;9.094;2022-07-04T06:16:43;26.40;61.20
47174;DHT22;36730;49.036;9.094;2022-07-04T06:19:09;26.30;60.60
47174;DHT22;36730;49.036;9.094;2022-07-04T06:21:34;26.30;60.20
47174;DHT22;36730;49.036;9.094;2022-07-04T06:24:00;26.30;60.00
47174;DHT22;36730;49.036;9.094;2022-07-04T06:26:26;26.30;60.20
47174;DHT22;36730;49.036;9.094;2022-07-04T06:28:52;26.30;61.80
47174;DHT22;36730;49.036;9.094;2022-07-04T06:31:17;26.30;62.10
47174;DHT22;36730;49.036;9.094;2022-07-04T06:33:43;26.30;61.60
47174;DHT22;36730;49.036;9.094;2022-07-04T06:36:27;26.30;61.00
47174;DHT22;36730;49.036;9.094;2022-07-04T06:38:53;26.30;60.80
47174;DHT22;36730;49.036;9.094;2022-07-04T06:41:18;26.30;62.90
47174;DHT22;36730;49.036;9.094;2022-07-04T06:43:44;26.30;61.60
47174;DHT22;36730;49.036;9.094;2022-07-04T06:46:09;26.40;62.60
47174;DHT22;36730;49.036;9.094;2022-07-04T06:48:35;26.40;61.90
47174;DHT22;36730;49.036;9.094;2022-07-04T06:51:01;26.40;62.00
47174;DHT22;36730;49.036;9.094;2022-07-04T06:53:27;26.40;62.00
47174;DHT22;36730;49.036;9.094;2022-07-04T06:55:52;26.40;60.90
47174;DHT22;36730;49.036;9.094;2022-07-04T06:58:18;26.40;63.30
47174;DHT22;36730;49.036;9.094;2022-07-04T07:00:43;26.40;61.70
47174;DHT22;36730;49.036;9.094;2022-07-04T07:03:09;26.40;62.20
47174;DHT22;36730;49.036;9.094;2022-07-04T07:05:35;26.40;63.40
47174;DHT22;36730;49.036;9.094;2022-07-04T07:08:02;26.40;62.50
47174;DHT22;36730;49.036;9.094;2022-07-04T07:10:28;26.40;62.90
47174;DHT22;36730;49.036;9.094;2022-07-04T07:12:53;26.40;62.60
47174;DHT22;36730;49.036;9.094;2022-07-04T07:15:19;26.40;63.20
47174;DHT22;36730;49.036;9.094;2022-07-04T07:17:45;26.40;63.10
47174;DHT22;36730;49.036;9.094;2022-07-04T07:20:10;26.40;62.90
47174;DHT22;36730;49.036;9.094;2022-07-04T07:22:36;26.50;62.10
47174;DHT22;36730;49.036;9.094;2022-07-04T07:25:02;26.50;63.60
47174;DHT22;36730;49.036;9.094;2022-07-04T07:27:27;26.50;62.90
47174;DHT22;36730;49.036;9.094;2022-07-04T07:29:53;26.50;63.00
47174;DHT22;36730;49.036;9.094;2022-07-04T07:32:18;26.50;62.70
47174;DHT22;36730;49.036;9.094;2022-07-04T07:34:44;26.50;63.90
47174;DHT22;36730;49.036;9.094;2022-07-04T07:37:09;26.50;63.00
47174;DHT22;36730;49.036;9.094;2022-07-04T07:39:35;26.60;63.20
47174;DHT22;36730;49.036;9.094;2022-07-04T07:42:00;26.50;63.00
47174;DHT22;36730;49.036;9.094;2022-07-04T07:44:26;26.50;63.00
47174;DHT22;36730;49.036;9.094;2022-07-04T07:46:51;26.50;63.10
47174;DHT22;36730;49.036;9.094;2022-07-04T07:49:17;26.60;62.80
47174;DHT22;36730;49.036;9.094;2022-07-04T07:51:43;26.60;62.80
47174;DHT22;36730;49.036;9.094;2022-07-04T07:54:08;26.60;62.80
47174;DHT22;36730;49.036;9.094;2022-07-04T07:56:34;26.50;62.90
47174;DHT22;36730;49.036;9.094;2022-07-04T07:58:59;26.50;63.10
47174;DHT22;36730;49.036;9.094;2022-07-04T08:01:25;26.60;62.90
47174;DHT22;36730;49.036;9.094;2022-07-04T08:03:50;26.60;63.40
47174;DHT22;36730;49.036;9.094;2022-07-04T08:06:34;26.60;63.20
47174;DHT22;36730;49.036;9.094;2022-07-04T08:09:00;26.60;63.90
47174;DHT22;36730;49.036;9.094;2022-07-04T08:11:25;26.60;63.00
47174;DHT22;36730;49.036;9.094;2022-07-04T08:13:51;26.70;63.80
47174;DHT22;36730;49.036;9.094;2022-07-04T08:16:16;26.70;63.90
47174;DHT22;36730;49.036;9.094;2022-07-04T08:18:42;26.70;63.50
47174;DHT22;36730;49.036;9.094;2022-07-04T08:21:07;26.70;63.00
47174;DHT22;36730;49.036;9.094;2022-07-04T08:23:33;26.70;65.00
47174;DHT22;36730;49.036;9.094;2022-07-04T08:25:59;26.80;63.40
47174;DHT22;36730;49.036;9.094;2022-07-04T08:28:25;26.50;62.30
47174;DHT22;36730;49.036;9.094;2022-07-04T08:30:51;26.50;63.40
47174;DHT22;36730;49.036;9.094;2022-07-04T08:33:17;26.50;64.20
47174;DHT22;36730;49.036;9.094;2022-07-04T08:35:42;26.50;63.10
47174;DHT22;36730;49.036;9.094;2022-07-04T08:38:08;26.40;63.50
47174;DHT22;36730;49.036;9.094;2022-07-04T08:40:33;26.40;63.50
47174;DHT22;36730;49.036;9.094;2022-07-04T08:43:00;26.40;63.50
47174;DHT22;36730;49.036;9.094;2022-07-04T08:45:27;26.50;62.40
47174;DHT22;36730;49.036;9.094;2022-07-04T08:48:00;26.60;62.00
47174;DHT22;36730;49.036;9.094;2022-07-04T08:50:28;26.40;61.90
47174;DHT22;36730;49.036;9.094;2022-07-04T08:52:56;26.50;63.40
47174;DHT22;36730;49.036;9.094;2022-07-04T08:55:23;26.60;63.30
47174;DHT22;36730;49.036;9.094;2022-07-04T08:58:08;26.70;62.50
47174;DHT22;36730;49.036;9.094;2022-07-04T09:00:55;26.70;63.30
47174;DHT22;36730;49.036;9.094;2022-07-04T09:03:21;26.80;62.50
47174;DHT22;36730;49.036;9.094;2022-07-04T09:05:48;26.90;62.20
47174;DHT22;36730;49.036;9.094;2022-07-04T09:08:13;26.90;62.60
47174;DHT22;36730;49.036;9.094;2022-07-04T09:10:39;26.90;62.70
47174;DHT22;36730;49.036;9.094;2022-07-04T09:13:05;27.00;62.50
47174;DHT22;36730;49.036;9.094;2022-07-04T09:15:31;27.00;61.90
47174;DHT22;36730;49.036;9.094;2022-07-04T09:17:57;27.00;61.60
47174;DHT22;36730;49.036;9.094;2022-07-04T09:20:23;27.00;62.30
47174;DHT22;36730;49.036;9.094;2022-07-04T09:22:49;27.00;62.80
47174;DHT22;36730;49.036;9.094;2022-07-04T09:25:15;27.10;62.40
47174;DHT22;36730;49.036;9.094;2022-07-04T09:27:41;27.10;61.90
47174;DHT22;36730;49.036;9.094;2022-07-04T09:30:10;27.20;62.90
47174;DHT22;36730;49.036;9.094;2022-07-04T09:32:49;27.20;61.70
47174;DHT22;36730;49.036;9.094;2022-07-04T09:35:19;27.20;62.60
47174;DHT22;36730;49.036;9.094;2022-07-04T09:37:55;27.30;62.80
47174;DHT22;36730;49.036;9.094;2022-07-04T09:40:34;27.20;61.40
47174;DHT22;36730;49.036;9.094;2022-07-04T09:43:19;27.20;62.60
47174;DHT22;36730;49.036;9.094;2022-07-04T09:45:55;27.30;62.50
47174;DHT22;36730;49.036;9.094;2022-07-04T09:48:20;27.40;62.60
47174;DHT22;36730;49.036;9.094;2022-07-04T09:50:46;27.50;62.40
47174;DHT22;36730;49.036;9.094;2022-07-04T09:53:12;27.60;61.90
47174;DHT22;36730;49.036;9.094;2022-07-04T09:55:37;27.70;63.20
47174;DHT22;36730;49.036;9.094;2022-07-04T09:58:04;27.70;62.50
47174;DHT22;36730;49.036;9.094;2022-07-04T10:00:30;27.80;61.80
47174;DHT22;36730;49.036;9.094;2022-07-04T10:02:57;27.90;62.00
47174;DHT22;36730;49.036;9.094;2022-07-04T10:05:40;27.90;61.10
47174;DHT22;36730;49.036;9.094;2022-07-04T10:08:05;27.90;60.40
47174;DHT22;36730;49.036;9.094;2022-07-04T10:10:32;27.90;59.90
47174;DHT22;36730;49.036;9.094;2022-07-04T10:13:02;28.00;60.50
47174;DHT22;36730;49.036;9.094;2022-07-04T10:15:28;27.90;60.30
47174;DHT22;36730;49.036;9.094;2022-07-04T10:17:53;28.00;60.30
47174;DHT22;36730;49.036;9.094;2022-07-04T10:20:19;28.00;60.50
47174;DHT22;36730;49.036;9.094;2022-07-04T10:22:45;28.00;60.00
47174;DHT22;36730;49.036;9.094;2022-07-04T10:25:10;28.00;59.80
47174;DHT22;36730;49.036;9.094;2022-07-04T10:27:36;28.00;60.20
47174;DHT22;36730;49.036;9.094;2022-07-04T10:30:03;28.00;59.60
47174;DHT22;36730;49.036;9.094;2022-07-04T10:32:29;28.00;60.30
47174;DHT22;36730;49.036;9.094;2022-07-04T10:34:55;28.00;61.40
47174;DHT22;36730;49.036;9.094;2022-07-04T10:37:20;28.00;60.30
47174;DHT22;36730;49.036;9.094;2022-07-04T10:39:47;28.00;60.30
47174;DHT22;36730;49.036;9.094;2022-07-04T10:42:24;28.00;60.40
47174;DHT22;36730;49.036;9.094;2022-07-04T10:44:51;28.00;60.30
47174;DHT22;36730;49.036;9.094;2022-07-04T10:47:23;28.00;61.00
47174;DHT22;36730;49.036;9.094;2022-07-04T10:49:49;28.10;59.80
47174;DHT22;36730;49.036;9.094;2022-07-04T10:52:16;28.20;61.00
47174;DHT22;36730;49.036;9.094;2022-07-04T10:54:42;28.20;59.10
47174;DHT22;36730;49.036;9.094;2022-07-04T10:59:36;28.10;58.70
47174;DHT22;36730;49.036;9.094;2022-07-04T11:07:12;28.20;58.90
47174;DHT22;36730;49.036;9.094;2022-07-04T11:09:38;28.20;58.80
47174;DHT22;36730;49.036;9.094;2022-07-04T11:12:03;28.30;59.30
47174;DHT22;36730;49.036;9.094;2022-07-04T11:16:59;28.30;59.70
47174;DHT22;36730;49.036;9.094;2022-07-04T11:19:25;28.30;59.60
47174;DHT22;36730;49.036;9.094;2022-07-04T11:21:53;28.30;59.90
47174;DHT22;36730;49.036;9.094;2022-07-04T11:24:19;28.30;59.40
47174;DHT22;36730;49.036;9.094;2022-07-04T11:26:45;28.40;59.20
47174;DHT22;36730;49.036;9.094;2022-07-04T11:29:12;28.40;59.60
47174;DHT22;36730;49.036;9.094;2022-07-04T11:31:41;28.40;58.50
47174;DHT22;36730;49.036;9.094;2022-07-04T11:34:07;28.50;58.80
47174;DHT22;36730;49.036;9.094;2022-07-04T11:36:33;28.40;59.30
47174;DHT22;36730;49.036;9.094;2022-07-04T11:39:00;28.50;59.60
47174;DHT22;36730;49.036;9.094;2022-07-04T11:41:26;28.40;58.70
47174;DHT22;36730;49.036;9.094;2022-07-04T11:44:12;28.50;59.70
47174;DHT22;36730;49.036;9.094;2022-07-04T11:49:28;28.40;60.60
47174;DHT22;36730;49.036;9.094;2022-07-04T11:51:53;28.50;59.50
47174;DHT22;36730;49.036;9.094;2022-07-04T11:54:21;28.50;59.20
47174;DHT22;36730;49.036;9.094;2022-07-04T11:56:46;28.50;59.00
47174;DHT22;36730;49.036;9.094;2022-07-04T11:59:12;28.50;60.20
47174;DHT22;36730;49.036;9.094;2022-07-04T12:01:39;28.50;60.40
47174;DHT22;36730;49.036;9.094;2022-07-04T12:04:11;28.50;60.60
47174;DHT22;36730;49.036;9.094;2022-07-04T12:06:37;28.60;60.20
47174;DHT22;36730;49.036;9.094;2022-07-04T12:09:02;28.70;59.70
47174;DHT22;36730;49.036;9.094;2022-07-04T12:14:13;28.80;59.40
47174;DHT22;36730;49.036;9.094;2022-07-04T12:16:38;28.90;59.00
47174;DHT22;36730;49.036;9.094;2022-07-04T12:19:10;28.90;59.50
47174;DHT22;36730;49.036;9.094;2022-07-04T12:21:35;28.80;58.70
47174;DHT22;36730;49.036;9.094;2022-07-04T12:24:01;28.80;58.90
47174;DHT22;36730;49.036;9.094;2022-07-04T12:26:31;28.80;58.90
47174;DHT22;36730;49.036;9.094;2022-07-04T12:28:57;28.80;58.60
47174;DHT22;36730;49.036;9.094;2022-07-04T12:31:42;28.90;57.90
47174;DHT22;36730;49.036;9.094;2022-07-04T12:34:16;28.90;58.90
47174;DHT22;36730;49.036;9.094;2022-07-04T12:36:55;28.90;58.40
47174;DHT22;36730;49.036;9.094;2022-07-04T12:39:34;28.90;58.70
47174;DHT22;36730;49.036;9.094;2022-07-04T12:42:03;28.90;59.60
47174;DHT22;36730;49.036;9.094;2022-07-04T12:44:29;28.90;58.50
47174;DHT22;36730;49.036;9.094;2022-07-04T12:46:57;29.00;57.70
47174;DHT22;36730;49.036;9.094;2022-07-04T12:49:23;29.00;58.40
47174;DHT22;36730;49.036;9.094;2022-07-04T12:51:49;29.00;57.00
47174;DHT22;36730;49.036;9.094;2022-07-04T12:54:14;29.00;56.90
47174;DHT22;36730;49.036;9.094;2022-07-04T12:56:41;29.00;57.00
47174;DHT22;36730;49.036;9.094;2022-07-04T12:59:16;29.00;56.80
47174;DHT22;36730;49.036;9.094;2022-07-04T13:01:43;29.10;56.80
47174;DHT22;36730;49.036;9.094;2022-07-04T13:04:09;29.00;56.30
47174;DHT22;36730;49.036;9.094;2022-07-04T13:06:35;29.10;57.70
47174;DHT22;36730;49.036;9.094;2022-07-04T13:09:01;29.10;56.20
47174;DHT22;36730;49.036;9.094;2022-07-04T13:11:27;29.10;55.70
47174;DHT22;36730;49.036;9.094;2022-07-04T13:14:11;29.00;56.80
47174;DHT22;36730;49.036;9.094;2022-07-04T13:16:37;29.00;56.60
47174;DHT22;36730;49.036;9.094;2022-07-04T13:19:02;29.00;57.10
47174;DHT22;36730;49.036;9.094;2022-07-04T13:21:28;29.00;56.60
47174;DHT22;36730;49.036;9.094;2022-07-04T13:23:53;29.00;56.40
47174;DHT22;36730;49.036;9.094;2022-07-04T13:26:19;29.00;56.20
47174;DHT22;36730;49.036;9.094;2022-07-04T13:28:45;29.10;56.60
47174;DHT22;36730;49.036;9.094;2022-07-04T13:31:11;29.10;56.80
47174;DHT22;36730;49.036;9.094;2022-07-04T13:33:36;29.10;55.80
47174;DHT22;36730;49.036;9.094;2022-07-04T13:36:02;29.10;56.20
47174;DHT22;36730;49.036;9.094;2022-07-04T13:38:28;29.20;56.50
47174;DHT22;36730;49.036;9.094;2022-07-04T13:40:54;29.20;56.30
47174;DHT22;36730;49.036;9.094;2022-07-04T13:43:22;29.20;55.80
47174;DHT22;36730;49.036;9.094;2022-07-04T13:45:48;29.20;56.70
47174;DHT22;36730;49.036;9.094;2022-07-04T13:48:14;29.20;56.30
47174;DHT22;36730;49.036;9.094;2022-07-04T13:50:39;29.20;56.50
47174;DHT22;36730;49.036;9.094;2022-07-04T13:53:05;29.20;56.10
47174;DHT22;36730;49.036;9.094;2022-07-04T13:55:31;29.30;55.90
47174;DHT22;36730;49.036;9.094;2022-07-04T13:57:57;29.20;55.80
47174;DHT22;36730;49.036;9.094;2022-07-04T14:00:23;29.30;55.40
47174;DHT22;36730;49.036;9.094;2022-07-04T14:02:49;29.30;55.10
47174;DHT22;36730;49.036;9.094;2022-07-04T14:05:14;29.20;56.00
47174;DHT22;36730;49.036;9.094;2022-07-04T14:07:40;29.30;55.20
47174;DHT22;36730;49.036;9.094;2022-07-04T14:10:06;29.30;55.50
47174;DHT22;36730;49.036;9.094;2022-07-04T14:12:31;29.30;55.10
47174;DHT22;36730;49.036;9.094;2022-07-04T14:14:57;29.30;55.20
47174;DHT22;36730;49.036;9.094;2022-07-04T14:17:22;29.30;56.60
47174;DHT22;36730;49.036;9.094;2022-07-04T14:19:47;29.30;55.30
47174;DHT22;36730;49.036;9.094;2022-07-04T14:22:13;29.30;54.50
47174;DHT22;36730;49.036;9.094;2022-07-04T14:24:39;29.30;54.10
47174;DHT22;36730;49.036;9.094;2022-07-04T14:27:04;29.30;54.70
47174;DHT22;36730;49.036;9.094;2022-07-04T14:29:30;29.30;54.00
47174;DHT22;36730;49.036;9.094;2022-07-04T14:31:55;29.40;54.10
47174;DHT22;36730;49.036;9.094;2022-07-04T14:34:21;29.40;53.20
47174;DHT22;36730;49.036;9.094;2022-07-04T14:36:46;29.40;52.30
47174;DHT22;36730;49.036;9.094;2022-07-04T14:39:12;29.40;53.00
47174;DHT22;36730;49.036;9.094;2022-07-04T14:41:38;29.40;54.20
47174;DHT22;36730;49.036;9.094;2022-07-04T14:44:03;29.30;52.40
47174;DHT22;36730;49.036;9.094;2022-07-04T14:46:29;29.30;51.10
47174;DHT22;36730;49.036;9.094;2022-07-04T14:48:55;29.30;51.20
47174;DHT22;36730;49.036;9.094;2022-07-04T14:51:21;29.30;50.40
47174;DHT22;36730;49.036;9.094;2022-07-04T14:53:46;29.30;50.50
47174;DHT22;36730;49.036;9.094;2022-07-04T14:56:12;29.30;50.10
47174;DHT22;36730;49.036;9.094;2022-07-04T14:58:37;29.20;49.70
47174;DHT22;36730;49.036;9.094;2022-07-04T15:01:03;29.20;50.00
47174;DHT22;36730;49.036;9.094;2022-07-04T15:03:28;29.20;49.80
47174;DHT22;36730;49.036;9.094;2022-07-04T15:05:54;29.20;47.50
47174;DHT22;36730;49.036;9.094;2022-07-04T15:08:19;29.20;47.90
47174;DHT22;36730;49.036;9.094;2022-07-04T15:10:45;29.20;48.20
47174;DHT22;36730;49.036;9.094;2022-07-04T15:13:10;29.20;48.50
47174;DHT22;36730;49.036;9.094;2022-07-04T15:15:36;29.20;48.00
47174;DHT22;36730;49.036;9.094;2022-07-04T15:18:01;29.20;48.50
47174;DHT22;36730;49.036;9.094;2022-07-04T15:20:27;29.10;47.30
47174;DHT22;36730;49.036;9.094;2022-07-04T15:23:11;29.20;47.40
47174;DHT22;36730;49.036;9.094;2022-07-04T15:25:56;29.20;46.20
47174;DHT22;36730;49.036;9.094;2022-07-04T15:28:21;29.10;46.30
47174;DHT22;36730;49.036;9.094;2022-07-04T15:30:46;29.10;47.00
47174;DHT22;36730;49.036;9.094;2022-07-04T15:33:12;29.10;47.60
47174;DHT22;36730;49.036;9.094;2022-07-04T15:35:49;29.10;47.40
47174;DHT22;36730;49.036;9.094;2022-07-04T15:38:17;29.20;47.40
47174;DHT22;36730;49.036;9.094;2022-07-04T15:40:43;29.20;47.40
47174;DHT22;36730;49.036;9.094;2022-07-04T15:43:08;29.20;48.20